Time;durP1;ratioP1;P1;durP2;ratioP2;P2;SDS_P1;SDS_P2;PMS_P1;PMS_P2;Temp;Humidity;BMP_temperature;BMP_pressure;BME280_temperature;BME280_humidity;BME280_pressure;Samples;Min_cycle;Max_cycle;Signal;HPM_P1;HPM_P2
2022/06/08 00:02:08;;;;;;;15.77;12.07;;;;;;;17.31;56.30;101042.53;5221230;28;20434;-52
2022/06/08 00:04:40;;;;;;;21.90;13.05;;;;;;;17.23;56.27;101032.00;5221588;28;20448;-55
2022/06/08 00:07:12;;;;;;;19.50;12.15;;;;;;;17.33;56.32;101035.19;5224147;28;20416;-53
2022/06/08 00:09:46;;;;;;;17.73;12.10;;;;;;;17.36;56.26;101033.97;5219667;28;20414;-55
2022/06/08 00:12:19;;;;;;;14.98;11.38;;;;;;;17.35;56.35;101030.50;5221036;28;20918;-55
2022/06/08 00:14:51;;;;;;;17.90;11.25;;;;;;;17.39;56.39;101026.41;5222351;28;20518;-51
2022/06/08 00:17:24;;;;;;;17.23;11.03;;;;;;;17.39;56.35;101063.78;5223066;28;20501;-44
2022/06/08 00:19:56;;;;;;;16.38;11.88;;;;;;;17.38;56.31;101018.63;5220319;28;20502;-51
2022/06/08 00:22:28;;;;;;;16.70;11.40;;;;;;;17.42;56.49;101010.00;5226141;28;20415;-53
2022/06/08 00:25:03;;;;;;;16.67;10.50;;;;;;;17.50;56.41;101014.41;5219449;28;21626;-56
2022/06/08 00:27:35;;;;;;;15.35;10.38;;;;;;;17.51;56.41;101008.88;5221615;28;20415;-53
2022/06/08 00:30:10;;;;;;;15.47;10.50;;;;;;;16.98;56.35;100922.94;5222988;28;20428;-54
2022/06/08 00:32:42;;;;;;;14.90;9.67;;;;;;;17.57;56.51;101011.81;5221787;28;20658;-55
2022/06/08 00:35:15;;;;;;;19.25;9.73;;;;;;;17.60;56.64;101014.09;5220903;28;20416;-53
2022/06/08 00:37:47;;;;;;;14.88;8.82;;;;;;;17.54;56.55;100997.00;5221738;28;20406;-54
2022/06/08 00:40:30;;;;;;;13.75;8.82;;;;;;;17.64;56.57;101012.69;5222816;28;20424;-53
2022/06/08 00:43:02;;;;;;;17.08;8.18;;;;;;;17.59;56.54;100994.59;5220746;28;20430;-54
2022/06/08 00:45:34;;;;;;;13.82;8.18;;;;;;;17.64;56.63;100992.13;5223547;28;20423;-54
2022/06/08 00:48:09;;;;;;;14.13;7.78;;;;;;;17.65;56.74;100998.31;5220914;28;20787;-57
2022/06/08 00:50:46;;;;;;;16.80;7.57;;;;;;;17.60;56.68;100980.19;5221102;28;20516;-51
2022/06/08 00:53:24;;;;;;;11.50;8.23;;;;;;;17.68;56.81;100992.56;5225569;28;20419;-54
2022/06/08 00:56:00;;;;;;;10.52;7.57;;;;;;;17.68;56.79;100982.75;5218294;28;20430;-54
2022/06/08 00:58:34;;;;;;;14.38;7.97;;;;;;;17.63;56.89;100973.66;5222092;28;20426;-54
2022/06/08 01:01:06;;;;;;;13.50;7.20;;;;;;;17.66;56.83;100974.09;5221467;28;20427;-52
2022/06/08 01:03:39;;;;;;;11.77;8.13;;;;;;;17.61;56.91;100959.66;5219864;28;20432;-51
2022/06/08 01:06:20;;;;;;;11.00;7.20;;;;;;;17.71;56.83;100973.50;5225137;28;21771;-55
2022/06/08 01:08:55;;;;;;;14.63;7.40;;;;;;;17.29;56.88;100916.47;5220800;28;20891;-54
2022/06/08 01:11:38;;;;;;;13.80;8.10;;;;;;;17.72;57.02;100961.81;5219053;28;20411;-55
2022/06/08 01:14:14;;;;;;;11.10;7.22;;;;;;;17.73;56.88;100958.09;5219537;28;20424;-54
2022/06/08 01:16:53;;;;;;;14.27;8.23;;;;;;;17.28;56.66;100880.09;5219186;28;20831;-54
2022/06/08 01:19:26;;;;;;;15.40;8.70;;;;;;;17.77;56.95;100945.19;5221725;28;20490;-57
2022/06/08 01:22:03;;;;;;;14.38;7.72;;;;;;;17.80;56.91;100953.66;5221271;28;20512;-49
2022/06/08 01:24:36;;;;;;;16.42;7.88;;;;;;;17.80;57.02;100952.84;5219972;28;20783;-55
2022/06/08 01:27:33;;;;;;;13.88;7.72;;;;;;;17.81;56.94;100949.13;5221794;28;20439;-54
2022/06/08 01:30:20;;;;;;;12.32;7.95;;;;;;;17.83;57.03;100947.94;5220561;28;20411;-52
2022/06/08 01:33:36;;;;;;;16.20;8.88;;;;;;;17.77;57.17;100937.16;5217657;28;20534;-52
2022/06/08 01:36:33;;;;;;;16.60;9.55;;;;;;;17.78;57.19;100939.69;5219284;28;20498;-52
2022/06/08 01:39:13;;;;;;;15.50;9.73;;;;;;;17.80;57.28;100929.63;5221665;28;20439;-55
2022/06/08 01:42:26;;;;;;;22.80;10.70;;;;;;;17.75;57.24;100919.50;5223638;28;20422;-52
2022/06/08 01:48:53;;;;;;;16.95;10.27;;;;;;;17.69;57.60;100924.81;5219367;28;20416;-54
2022/06/08 01:51:47;;;;;;;16.20;9.32;;;;;;;17.66;57.67;100919.84;5216898;28;20786;-44
2022/06/08 01:54:37;;;;;;;21.35;10.25;;;;;;;17.66;57.66;100914.50;5222311;28;20767;-53
2022/06/08 01:57:24;;;;;;;15.20;10.07;;;;;;;17.49;57.59;100880.06;5220516;28;20419;-52
2022/06/08 02:00:05;;;;;;;15.93;10.55;;;;;;;17.64;57.85;100900.50;5214501;28;20874;-55
2022/06/08 02:02:47;;;;;;;19.55;11.45;;;;;;;17.54;57.96;100895.50;5219671;28;20510;-55
2022/06/08 02:05:28;;;;;;;24.83;11.55;;;;;;;17.54;58.14;100902.72;5218910;28;20520;-52
2022/06/08 02:08:08;;;;;;;23.13;13.30;;;;;;;17.47;58.12;100900.81;5218915;28;20423;-51
2022/06/08 02:10:52;;;;;;;28.27;12.90;;;;;;;17.45;58.29;100886.81;5220331;28;21140;-51
2022/06/08 02:13:29;;;;;;;24.83;12.40;;;;;;;17.42;58.15;100881.88;5219764;28;21135;-50
2022/06/08 02:16:09;;;;;;;21.05;11.50;;;;;;;17.19;58.39;100843.91;5218949;28;20412;-54
2022/06/08 02:18:49;;;;;;;24.38;13.18;;;;;;;17.38;58.44;100885.94;5221517;28;20434;-55
2022/06/08 02:21:25;;;;;;;25.23;13.68;;;;;;;17.26;58.69;100871.47;5219090;28;20443;-55
2022/06/08 02:24:02;;;;;;;22.02;13.10;;;;;;;17.27;58.76;100873.94;5219668;28;20404;-53
2022/06/08 02:26:39;;;;;;;26.60;16.20;;;;;;;17.23;59.09;100871.84;5222479;28;20428;-52
2022/06/08 02:29:16;;;;;;;27.55;16.58;;;;;;;17.10;59.05;100872.56;5226104;28;20795;-50
2022/06/08 02:31:54;;;;;;;30.13;17.42;;;;;;;17.11;59.14;100858.22;5219259;28;20410;-53
2022/06/08 02:34:35;;;;;;;33.92;20.63;;;;;;;16.42;59.14;100752.09;5216597;28;20441;-53
2022/06/08 02:37:13;;;;;;;33.28;18.70;;;;;;;17.12;59.26;100851.03;5221321;28;20510;-54
2022/06/08 02:39:50;;;;;;;30.80;18.67;;;;;;;17.10;59.34;100850.41;5221748;28;20498;-53
2022/06/08 02:42:31;;;;;;;32.38;20.50;;;;;;;17.08;59.50;100847.09;5222489;28;20486;-51
2022/06/08 02:45:11;;;;;;;34.67;19.63;;;;;;;17.03;59.51;100832.50;5224475;28;20419;-55
2022/06/08 02:47:48;;;;;;;33.30;20.00;;;;;;;16.90;59.66;100828.88;5224148;28;20481;-51
2022/06/08 02:50:24;;;;;;;37.22;22.85;;;;;;;16.97;59.83;100835.94;5223802;28;20987;-56
2022/06/08 02:53:30;;;;;;;35.03;22.60;;;;;;;16.95;60.08;100837.13;5217861;28;20451;-58
2022/06/08 02:56:14;;;;;;;38.60;24.02;;;;;;;16.82;59.98;100829.84;5221550;28;20415;-56
2022/06/08 02:58:53;;;;;;;40.28;24.40;;;;;;;16.78;60.26;100812.53;5221913;28;20419;-51
2022/06/08 03:01:35;;;;;;;40.60;23.75;;;;;;;16.83;60.35;100832.31;5222991;28;20417;-52
2022/06/08 03:04:13;;;;;;;40.70;24.13;;;;;;;16.82;60.44;100828.00;5222135;28;20431;-55
2022/06/08 03:06:51;;;;;;;38.15;23.15;;;;;;;16.64;60.57;100800.91;5225199;28;20538;-54
2022/06/08 03:09:25;;;;;;;36.92;23.67;;;;;;;16.79;60.61;100824.88;5224253;28;20416;-50
2022/06/08 03:12:01;;;;;;;38.13;24.02;;;;;;;16.63;60.67;100793.09;5220746;28;20435;-51
2022/06/08 03:14:36;;;;;;;36.42;23.75;;;;;;;16.77;60.80;100813.56;5211676;28;20602;-55
2022/06/08 03:17:31;;;;;;;39.10;24.10;;;;;;;16.80;60.88;100818.53;5218371;28;20428;-54
2022/06/08 03:20:10;;;;;;;34.75;23.88;;;;;;;16.75;60.92;100810.22;5213196;28;20422;-54
2022/06/08 03:22:43;;;;;;;35.90;23.20;;;;;;;16.77;60.99;100813.56;5221853;28;20427;-49
2022/06/08 03:25:16;;;;;;;34.08;23.35;;;;;;;16.83;61.02;100818.16;5224074;28;20427;-51
2022/06/08 03:27:50;;;;;;;33.00;22.65;;;;;;;16.80;61.18;100810.53;5222686;28;20409;-54
2022/06/08 03:30:23;;;;;;;37.23;21.37;;;;;;;16.80;61.14;100813.19;5225829;28;20439;-55
2022/06/08 03:32:56;;;;;;;33.90;23.05;;;;;;;16.84;61.41;100809.13;5219810;28;20410;-54
2022/06/08 03:35:28;;;;;;;34.10;21.70;;;;;;;16.86;61.34;100816.94;5222304;28;20412;-53
2022/06/08 03:38:01;;;;;;;36.67;23.73;;;;;;;16.83;61.44;100818.16;5222980;28;20901;-52
2022/06/08 03:40:33;;;;;;;34.47;22.20;;;;;;;16.85;61.51;100815.28;5224260;28;20427;-54
2022/06/08 03:43:06;;;;;;;32.42;22.27;;;;;;;16.87;61.67;100818.59;5224542;28;20506;-53
2022/06/08 03:45:44;;;;;;;31.60;20.73;;;;;;;16.90;61.65;100813.69;5224030;28;20423;-54
2022/06/08 03:48:18;;;;;;;34.73;22.30;;;;;;;16.90;61.67;100808.34;5224708;28;20502;-53
2022/06/08 03:50:53;;;;;;;27.90;19.63;;;;;;;16.85;61.81;100785.94;5223539;28;20414;-55
2022/06/08 03:53:34;;;;;;;28.07;19.47;;;;;;;16.96;61.82;100807.59;5221411;28;20611;-56
2022/06/08 03:56:08;;;;;;;31.03;20.53;;;;;;;17.00;61.87;100806.19;5222658;28;20432;-53
2022/06/08 03:58:40;;;;;;;31.95;19.70;;;;;;;16.99;61.87;100796.53;5221394;28;20920;-51
2022/06/08 04:01:14;;;;;;;31.75;19.40;;;;;;;17.04;61.95;100804.78;5224329;28;20427;-51
2022/06/08 04:03:47;;;;;;;30.30;19.00;;;;;;;17.09;61.95;100800.69;5222745;28;20439;-56
2022/06/08 04:06:20;;;;;;;24.52;18.45;;;;;;;17.12;62.06;100805.66;5221292;28;20440;-56
2022/06/08 04:08:53;;;;;;;26.48;17.63;;;;;;;17.15;62.01;100800.75;5223034;28;20407;-49
2022/06/08 04:11:26;;;;;;;23.48;17.75;;;;;;;17.23;61.97;100805.97;5221723;28;20424;-54
2022/06/08 04:14:01;;;;;;;28.02;18.33;;;;;;;17.31;61.92;100799.63;5222404;28;20586;-56
2022/06/08 04:16:35;;;;;;;32.22;17.80;;;;;;;17.28;61.85;100800.03;5222692;28;20430;-55
2022/06/08 04:19:07;;;;;;;26.40;18.05;;;;;;;17.32;61.73;100790.63;5222259;28;20433;-54
2022/06/08 04:21:40;;;;;;;25.02;17.40;;;;;;;17.43;61.72;100803.41;5228113;28;20504;-54
2022/06/08 04:24:15;;;;;;;23.85;17.30;;;;;;;17.33;61.74;100797.59;5229140;28;20430;-57
2022/06/08 04:26:48;;;;;;;24.65;16.73;;;;;;;17.45;61.67;100805.91;5226168;28;20415;-55
2022/06/08 04:29:20;;;;;;;25.70;16.50;;;;;;;17.46;61.64;100795.00;5226894;28;21905;-56
2022/06/08 04:31:54;;;;;;;25.55;16.65;;;;;;;17.46;61.67;100799.53;5225092;28;20420;-56
2022/06/08 04:34:27;;;;;;;22.80;16.55;;;;;;;17.46;61.66;100789.66;5222316;28;20423;-56
2022/06/08 04:36:59;;;;;;;26.52;16.45;;;;;;;16.88;61.57;100702.84;5225631;28;20514;-59
2022/06/08 04:39:32;;;;;;;22.38;15.30;;;;;;;17.53;61.52;100795.06;5227123;28;20474;-59
2022/06/08 04:42:06;;;;;;;24.45;15.38;;;;;;;17.57;61.54;100782.16;5228803;28;20928;-56
2022/06/08 04:44:39;;;;;;;22.65;16.02;;;;;;;17.69;61.44;100791.25;5228324;28;20454;-57
2022/06/08 04:47:12;;;;;;;21.48;15.07;;;;;;;17.79;61.41;100793.59;5226307;28;20511;-53
2022/06/08 04:49:45;;;;;;;20.53;14.63;;;;;;;17.92;61.33;100785.63;5226247;28;20408;-50
2022/06/08 04:52:18;;;;;;;23.70;14.27;;;;;;;18.05;61.06;100779.50;5223827;28;20430;-53
2022/06/08 04:54:51;;;;;;;22.48;13.60;;;;;;;17.65;60.78;100713.38;5225511;28;20490;-55
2022/06/08 04:57:24;;;;;;;17.02;12.07;;;;;;;18.28;61.05;100774.66;5225650;28;20577;-55
2022/06/08 04:59:56;;;;;;;20.80;12.30;;;;;;;18.36;60.81;100782.47;5224354;28;20756;-56
2022/06/08 05:02:47;;;;;;;20.13;12.15;;;;;;;18.47;60.62;100777.56;5225586;28;20419;-55
2022/06/08 05:05:23;;;;;;;20.57;11.53;;;;;;;18.55;60.60;100785.38;5227348;28;20408;-56
2022/06/08 05:07:55;;;;;;;13.43;9.98;;;;;;;18.65;60.35;100780.47;5224411;28;20423;-55
2022/06/08 05:10:31;;;;;;;11.93;8.52;;;;;;;18.67;60.24;100775.72;5227273;28;20933;-57
2022/06/08 05:13:04;;;;;;;14.80;8.68;;;;;;;18.70;59.98;100774.50;5231164;28;20431;-54
2022/06/08 05:15:40;;;;;;;11.75;7.20;;;;;;;18.74;60.30;100778.47;5232562;28;20892;-58
2022/06/08 05:18:16;;;;;;;10.82;7.65;;;;;;;18.82;59.79;100775.56;5226041;28;20412;-55
2022/06/08 05:20:49;;;;;;;9.05;6.53;;;;;;;18.89;59.59;100771.88;5223749;28;20645;-55
2022/06/08 05:23:26;;;;;;;10.73;6.70;;;;;;;18.98;59.27;100758.28;5224002;28;20899;-53
2022/06/08 05:26:00;;;;;;;7.13;5.70;;;;;;;19.07;59.48;100755.19;5224187;28;20416;-54
2022/06/08 05:28:33;;;;;;;7.63;5.32;;;;;;;19.24;59.06;100763.59;5221098;28;20507;-54
2022/06/08 05:31:05;;;;;;;14.15;6.78;;;;;;;19.35;58.79;100762.97;5226467;28;20411;-57
2022/06/08 05:33:39;;;;;;;11.25;6.38;;;;;;;19.37;58.64;100756.59;5226614;28;20447;-53
2022/06/08 05:36:12;;;;;;;11.85;6.30;;;;;;;19.16;58.57;100731.69;5225335;28;20424;-52
2022/06/08 05:38:44;;;;;;;10.07;5.90;;;;;;;19.34;58.44;100755.97;5219094;28;20775;-54
2022/06/08 05:41:17;;;;;;;9.80;6.45;;;;;;;19.27;58.34;100757.84;5228015;28;20821;-54
2022/06/08 05:43:49;;;;;;;10.98;6.65;;;;;;;19.29;58.18;100755.78;5225553;28;20392;-53
2022/06/08 05:46:22;;;;;;;10.85;5.95;;;;;;;19.27;58.03;100757.84;5222056;28;20415;-51
2022/06/08 05:48:55;;;;;;;11.73;6.32;;;;;;;19.24;57.98;100750.22;5224445;28;20404;-54
2022/06/08 05:51:28;;;;;;;10.90;6.53;;;;;;;19.28;58.01;100754.13;5220110;28;20921;-54
2022/06/08 05:54:00;;;;;;;10.77;5.68;;;;;;;19.27;57.89;100751.66;5223204;28;20447;-52
2022/06/08 05:56:33;;;;;;;9.48;6.47;;;;;;;19.26;57.88;100750.84;5224935;28;20502;-54
2022/06/08 05:59:05;;;;;;;11.23;6.32;;;;;;;19.27;57.82;100743.63;5220558;28;20423;-56
2022/06/08 06:01:38;;;;;;;8.43;6.00;;;;;;;19.23;57.69;100734.34;5219605;28;20555;-55
2022/06/08 06:04:12;;;;;;;14.40;6.43;;;;;;;19.35;57.68;100746.91;5221151;28;20538;-54
2022/06/08 06:06:46;;;;;;;16.48;6.70;;;;;;;19.10;57.47;100703.09;5223555;28;20420;-55
2022/06/08 06:09:20;;;;;;;15.95;6.47;;;;;;;19.44;57.40;100726.06;5226863;28;20408;-56
2022/06/08 06:11:53;;;;;;;11.48;5.88;;;;;;;19.60;57.22;100732.81;5230367;28;20434;-53
2022/06/08 06:14:25;;;;;;;12.50;6.45;;;;;;;19.70;57.05;100729.72;5226949;28;20414;-48
2022/06/08 06:16:57;;;;;;;9.88;5.70;;;;;;;19.75;56.91;100721.84;5230826;28;20423;-55
2022/06/08 06:19:32;;;;;;;8.68;5.85;;;;;;;20.01;56.70;100727.09;5232412;28;20408;-56
2022/06/08 06:22:05;;;;;;;8.52;5.63;;;;;;;20.24;56.36;100728.41;5232970;28;20893;-55
2022/06/08 06:24:37;;;;;;;12.53;5.77;;;;;;;20.46;56.34;100728.88;5232376;28;20452;-54
2022/06/08 06:27:10;;;;;;;11.70;5.97;;;;;;;20.49;56.17;100712.34;5232323;28;20597;-56
2022/06/08 06:29:42;;;;;;;12.53;6.03;;;;;;;20.57;56.01;100719.34;5234190;28;20476;-56
2022/06/08 06:32:24;;;;;;;11.95;5.47;;;;;;;20.52;55.90;100722.66;5228618;28;20924;-55
2022/06/08 06:34:59;;;;;;;8.20;5.38;;;;;;;20.55;55.88;100722.22;5230198;28;20477;-58
2022/06/08 06:37:32;;;;;;;8.25;5.72;;;;;;;20.69;55.49;100707.69;5233917;28;20444;-53
2022/06/08 06:40:07;;;;;;;9.73;5.10;;;;;;;20.88;55.33;100710.41;5233976;28;20464;-56
2022/06/08 06:42:39;;;;;;;7.90;5.38;;;;;;;20.91;55.29;100701.91;5231226;28;20768;-58
2022/06/08 06:45:13;;;;;;;15.20;4.85;;;;;;;20.90;55.15;100703.78;5231347;28;20438;-55
2022/06/08 06:47:45;;;;;;;9.57;5.17;;;;;;;20.96;54.92;100712.78;5232367;28;21184;-54
2022/06/08 06:50:19;;;;;;;6.28;5.05;;;;;;;20.95;54.92;100711.16;5228764;28;20452;-55
2022/06/08 06:52:52;;;;;;;8.45;5.07;;;;;;;21.02;54.71;100706.53;5231269;28;20535;-57
2022/06/08 06:55:28;;;;;;;9.33;5.57;;;;;;;21.11;54.58;100701.69;5234131;28;20785;-56
2022/06/08 06:58:00;;;;;;;6.40;4.70;;;;;;;21.21;54.41;100703.88;5231130;28;20458;-56
2022/06/08 07:00:34;;;;;;;7.40;4.77;;;;;;;21.32;54.41;100703.13;5232656;28;20602;-56
2022/06/08 07:03:06;;;;;;;7.80;4.30;;;;;;;21.24;54.09;100660.44;5232831;28;20448;-54
2022/06/08 07:05:41;;;;;;;10.43;5.22;;;;;;;21.58;53.80;100692.06;5232337;28;21258;-56
2022/06/08 07:08:14;;;;;;;10.10;4.93;;;;;;;21.74;53.54;100689.81;5228502;28;20416;-58
2022/06/08 07:11:32;;;;;;;10.43;4.63;;;;;;;22.04;53.22;100687.94;5229928;28;20404;-56
2022/06/08 07:13:41;;;;;;;7.63;4.57;;;;;;;22.27;53.09;100684.53;5229123;28;20461;-56
2022/06/08 07:16:13;;;;;;;6.20;4.33;;;;;;;22.45;52.76;100697.09;5227592;28;20689;-56
2022/06/08 07:18:45;;;;;;;7.00;3.40;;;;;;;22.50;52.60;100691.00;5228289;28;20951;-57
2022/06/08 07:21:19;;;;;;;9.20;4.05;;;;;;;22.49;52.46;100698.28;5230273;28;20761;-56
2022/06/08 07:23:52;;;;;;;9.60;3.97;;;;;;;22.29;52.34;100679.72;5224801;28;20423;-54
2022/06/08 07:26:27;;;;;;;6.88;4.25;;;;;;;22.27;52.39;100689.13;5230454;28;20464;-57
2022/06/08 07:29:00;;;;;;;10.70;4.70;;;;;;;22.19;52.26;100675.97;5232059;28;20472;-60
2022/06/08 07:31:33;;;;;;;11.13;4.90;;;;;;;22.21;52.23;100681.97;5233875;28;20871;-59
2022/06/08 07:34:05;;;;;;;8.23;4.00;;;;;;;22.20;52.18;100674.94;5234534;28;20486;-60
2022/06/08 07:36:39;;;;;;;5.57;4.05;;;;;;;22.18;51.99;100677.03;5234130;28;20437;-59
2022/06/08 07:39:12;;;;;;;9.07;4.57;;;;;;;22.21;51.82;100671.19;5230661;28;20753;-57
2022/06/08 07:41:45;;;;;;;7.13;4.15;;;;;;;22.10;51.64;100672.75;5231843;28;20418;-54
2022/06/08 07:44:18;;;;;;;7.95;3.60;;;;;;;22.20;51.79;100674.94;5230650;28;20411;-56
2022/06/08 07:46:51;;;;;;;11.27;4.38;;;;;;;22.23;51.64;100663.69;5228995;28;20422;-55
2022/06/08 07:49:36;;;;;;;7.90;3.47;;;;;;;22.24;51.47;100670.75;5230904;28;20414;-55
2022/06/08 07:52:15;;;;;;;8.32;3.88;;;;;;;22.29;51.40;100671.66;5229500;28;20937;-56
2022/06/08 07:54:50;;;;;;;6.32;3.55;;;;;;;22.43;51.32;100658.00;5228634;28;20438;-55
2022/06/08 07:57:26;;;;;;;7.53;3.97;;;;;;;22.62;50.90;100658.72;5230220;28;20503;-57
2022/06/08 07:59:58;;;;;;;9.18;3.72;;;;;;;22.77;50.79;100651.00;5228025;28;20411;-57
2022/06/08 08:02:31;;;;;;;8.40;4.20;;;;;;;23.04;50.52;100664.00;5229154;28;20425;-57
2022/06/08 08:05:04;;;;;;;10.48;4.25;;;;;;;23.13;50.26;100657.19;5230655;28;20477;-55
2022/06/08 08:07:38;;;;;;;9.63;4.28;;;;;;;23.19;50.19;100648.97;5227688;28;20449;-57
2022/06/08 08:10:16;;;;;;;7.10;4.60;;;;;;;23.17;49.99;100648.41;5230302;28;20787;-57
2022/06/08 08:12:49;;;;;;;6.57;3.87;;;;;;;23.17;50.01;100652.97;5229913;28;20469;-57
2022/06/08 08:15:22;;;;;;;5.80;3.40;;;;;;;23.10;50.08;100646.88;5230994;28;20425;-52
2022/06/08 08:17:55;;;;;;;6.87;3.23;;;;;;;23.05;50.02;100649.47;5232801;28;20888;-55
2022/06/08 08:20:30;;;;;;;7.63;3.70;;;;;;;23.12;50.08;100650.16;5228342;28;20412;-58
2022/06/08 08:23:06;;;;;;;6.07;4.30;;;;;;;23.18;49.93;100651.91;5231209;28;20404;-55
2022/06/08 08:25:39;;;;;;;10.07;3.88;;;;;;;23.23;49.83;100646.63;5232283;28;20504;-54
2022/06/08 08:28:11;;;;;;;7.82;3.95;;;;;;;23.36;49.62;100646.34;5226945;28;20416;-58
2022/06/08 08:30:43;;;;;;;8.10;3.67;;;;;;;23.50;49.42;100640.69;5231956;28;20886;-57
2022/06/08 08:33:16;;;;;;;8.18;4.15;;;;;;;23.60;49.19;100628.22;5231479;28;20479;-54
2022/06/08 08:35:50;;;;;;;5.55;4.13;;;;;;;23.53;49.22;100615.94;5231210;28;20761;-55
2022/06/08 08:38:24;;;;;;;6.57;4.38;;;;;;;23.68;49.17;100635.09;5224416;28;20908;-56
2022/06/08 08:40:59;;;;;;;6.03;3.80;;;;;;;23.87;48.95;100620.38;5223693;27;20403;-58
2022/06/08 08:43:35;;;;;;;16.77;4.27;;;;;;;24.11;48.46;100618.34;5230720;28;20840;-56
2022/06/08 08:46:22;;;;;;;6.90;4.05;;;;;;;24.49;48.13;100621.38;5231220;28;20434;-57
2022/06/08 08:49:00;;;;;;;5.68;3.72;;;;;;;24.57;48.08;100613.69;5224520;28;20853;-57
2022/06/08 08:51:43;;;;;;;7.47;4.18;;;;;;;24.65;47.93;100620.53;5224091;28;20517;-55
2022/06/08 08:54:26;;;;;;;5.95;3.75;;;;;;;24.84;47.89;100626.50;5229470;28;21590;-56
2022/06/08 08:57:12;;;;;;;8.25;5.03;;;;;;;24.49;47.96;100589.81;5227351;28;20404;-54
2022/06/08 08:59:48;;;;;;;8.23;5.00;;;;;;;24.55;47.93;100607.72;5225131;28;20465;-56
2022/06/08 09:05:15;;;;;;;11.15;5.75;;;;;;;24.26;48.19;100625.88;5222510;28;20461;-55
2022/06/08 09:07:48;;;;;;;10.30;6.00;;;;;;;23.96;48.37;100618.09;5227761;28;20410;-56
2022/06/08 09:10:25;;;;;;;10.73;6.00;;;;;;;23.78;48.43;100621.81;5225971;28;20483;-57
2022/06/08 09:12:58;;;;;;;9.70;7.82;;;;;;;23.54;48.91;100614.91;5220392;28;20421;-55
2022/06/08 09:15:49;;;;;;;13.43;10.55;;;;;;;23.37;49.07;100623.72;5225176;28;20455;-56
2022/06/08 09:18:33;;;;;;;19.08;16.80;;;;;;;23.20;49.29;100628.25;5223951;28;20419;-54
2022/06/08 09:21:32;;;;;;;20.42;17.10;;;;;;;22.88;49.63;100604.38;5220643;28;20408;-56
2022/06/08 09:24:23;;;;;;;17.23;15.43;;;;;;;22.88;49.46;100593.59;5222891;28;20994;-55
2022/06/08 09:27:08;;;;;;;18.23;16.23;;;;;;;23.07;49.61;100626.63;5223004;28;20429;-56
2022/06/08 09:29:54;;;;;;;18.27;16.00;;;;;;;23.10;49.68;100625.31;5224690;28;20956;-56
2022/06/08 09:32:36;;;;;;;17.88;15.18;;;;;;;23.01;49.57;100617.63;5210686;28;20464;-55
2022/06/08 09:35:23;;;;;;;18.05;14.75;;;;;;;22.96;49.83;100625.59;5224097;28;20415;-57
2022/06/08 09:37:59;;;;;;;16.90;13.98;;;;;;;23.04;49.66;100615.50;5217051;28;20426;-49
2022/06/08 09:40:42;;;;;;;14.20;12.25;;;;;;;23.25;49.86;100612.16;5226325;28;20498;-57
2022/06/08 09:43:50;;;;;;;12.35;10.32;;;;;;;23.53;49.42;100607.84;5221785;28;20535;-56
2022/06/08 09:51:25;;;;;;;16.70;11.13;;;;;;;23.65;49.19;100595.94;5220403;28;20426;-55
2022/06/08 09:52:59;;;;;;;13.57;10.50;;;;;;;24.10;48.86;100603.22;5222042;28;20429;-58
2022/06/08 09:55:50;;;;;;;13.75;10.20;;;;;;;24.05;48.96;100599.63;5222658;28;20403;-57
2022/06/08 09:58:43;;;;;;;14.73;10.73;;;;;;;24.02;49.14;100594.72;5224684;28;20499;-52
2022/06/08 10:01:29;;;;;;;14.75;10.52;;;;;;;24.07;48.96;100595.63;5221916;28;24786;-57
2022/06/08 10:04:37;;;;;;;16.85;10.88;;;;;;;24.12;48.98;100597.56;5219904;28;20416;-55
2022/06/08 10:07:17;;;;;;;10.35;9.25;;;;;;;24.24;48.59;100590.22;5219480;28;20412;-51
2022/06/08 10:10:14;;;;;;;11.13;8.20;;;;;;;24.23;48.44;100585.91;5221942;28;20477;-54
2022/06/08 10:12:56;;;;;;;12.57;8.70;;;;;;;24.13;48.53;100586.56;5217845;28;20522;-56
2022/06/08 10:15:35;;;;;;;18.75;8.65;;;;;;;24.14;48.43;100582.78;5217666;28;20419;-54
2022/06/08 10:18:17;;;;;;;10.07;7.38;;;;;;;24.01;48.62;100587.72;5221730;28;20570;-55
2022/06/08 10:20:54;;;;;;;10.27;8.25;;;;;;;23.88;48.69;100595.06;5221105;28;20423;-52
2022/06/08 10:23:35;;;;;;;11.17;7.23;;;;;;;23.67;48.92;100601.13;5213585;28;20411;-58
2022/06/08 10:26:16;;;;;;;11.60;7.45;;;;;;;23.36;49.18;100581.69;5217260;28;20431;-51
2022/06/08 10:28:52;;;;;;;11.63;8.30;;;;;;;23.11;49.69;100595.47;5218409;28;20708;-55
2022/06/08 10:31:36;;;;;;;16.00;8.52;;;;;;;22.87;50.16;100616.22;5223221;28;20491;-54
2022/06/08 10:34:16;;;;;;;13.10;6.40;;;;;;;22.55;50.77;100623.84;5218613;28;20415;-56
2022/06/08 10:36:52;;;;;;;10.93;5.55;;;;;;;22.29;51.15;100622.44;5224105;28;20598;-57
2022/06/08 10:39:28;;;;;;;13.73;5.40;;;;;;;22.20;51.40;100642.66;5219459;28;20415;-55
2022/06/08 10:45:45;;;;;;;10.57;3.38;;;;;;;22.08;51.57;100623.75;5215524;28;20411;-55
2022/06/08 10:48:51;;;;;;;10.07;3.88;;;;;;;22.01;51.74;100623.88;5218245;28;20408;-55
2022/06/08 10:51:39;;;;;;;6.03;3.20;;;;;;;21.97;51.92;100638.81;5210855;28;20516;-53
2022/06/08 10:54:54;;;;;;;5.22;2.63;;;;;;;21.85;52.29;100637.97;5215437;28;20419;-54
2022/06/08 10:58:06;;;;;;;4.67;2.30;;;;;;;21.60;52.72;100633.56;5212709;28;20803;-57
2022/06/08 11:01:00;;;;;;;6.72;2.28;;;;;;;21.56;52.79;100639.63;5209356;28;20434;-56
2022/06/08 11:03:57;;;;;;;6.53;2.37;;;;;;;21.25;53.22;100641.44;5217837;28;20618;-53
2022/06/08 11:07:00;;;;;;;7.35;2.67;;;;;;;21.02;53.43;100644.78;5220166;28;20422;-50
2022/06/08 11:10:02;;;;;;;9.57;2.70;;;;;;;20.89;53.60;100653.78;5218449;28;20534;-55
2022/06/08 11:12:46;;;;;;;8.25;2.70;;;;;;;20.67;53.57;100629.25;5217908;28;20554;-54
2022/06/08 11:15:42;;;;;;;5.38;2.75;;;;;;;20.65;53.42;100628.63;5219418;28;20684;-54
2022/06/08 11:18:24;;;;;;;8.60;2.93;;;;;;;20.85;53.49;100643.75;5219208;28;20588;-55
2022/06/08 11:21:38;;;;;;;5.45;3.00;;;;;;;20.89;53.56;100647.59;5217925;28;20479;-53
2022/06/08 11:24:24;;;;;;;9.68;2.90;;;;;;;20.89;53.62;100651.09;5217376;28;20435;-51
2022/06/08 11:27:29;;;;;;;8.05;2.90;;;;;;;20.85;53.93;100649.09;5218116;28;20484;-51
2022/06/08 11:30:03;;;;;;;9.27;2.28;;;;;;;20.72;54.23;100637.47;5219666;28;20822;-51
2022/06/08 11:33:16;;;;;;;9.70;2.50;;;;;;;20.71;54.26;100643.84;5220034;28;20427;-52
2022/06/08 11:36:17;;;;;;;7.00;2.78;;;;;;;20.70;54.28;100636.84;5217726;28;20603;-52
2022/06/08 11:39:01;;;;;;;8.02;2.90;;;;;;;20.71;54.26;100641.16;5220527;28;20475;-51
2022/06/08 11:41:38;;;;;;;8.25;3.13;;;;;;;20.70;54.58;100644.91;5217553;28;21009;-52
2022/06/08 11:44:17;;;;;;;7.05;2.35;;;;;;;20.65;54.71;100636.69;5219008;28;20467;-52
2022/06/08 11:46:53;;;;;;;7.10;2.70;;;;;;;20.56;54.80;100638.00;5220495;28;20495;-50
2022/06/08 11:49:32;;;;;;;9.15;3.03;;;;;;;20.41;55.08;100640.19;5216428;28;20978;-51
2022/06/08 11:52:31;;;;;;;7.72;2.58;;;;;;;20.36;55.17;100630.13;5216191;28;20474;-54
2022/06/08 11:55:17;;;;;;;6.35;2.40;;;;;;;20.24;55.35;100619.28;5216674;28;20470;-53
2022/06/08 11:57:55;;;;;;;9.50;3.05;;;;;;;20.16;55.55;100613.34;5216550;28;20507;-54
2022/06/08 12:00:37;;;;;;;7.18;2.80;;;;;;;20.16;55.72;100627.59;5215695;28;20430;-53
2022/06/08 12:03:27;;;;;;;5.63;2.97;;;;;;;20.10;55.70;100623.13;5219472;28;20519;-54
2022/06/08 12:06:09;;;;;;;8.60;2.97;;;;;;;20.03;55.77;100617.78;5216673;28;20656;-52
2022/06/08 12:08:45;;;;;;;5.78;2.28;;;;;;;20.03;55.90;100627.69;5214938;28;21062;-54
2022/06/08 12:11:21;;;;;;;5.93;2.07;;;;;;;19.88;56.18;100629.84;5210354;28;20483;-54
2022/06/08 12:14:01;;;;;;;6.20;1.73;;;;;;;19.84;56.22;100620.59;5210368;28;20427;-52
2022/06/08 12:16:37;;;;;;;3.65;1.90;;;;;;;19.80;56.44;100622.91;5214642;28;20507;-50
2022/06/08 12:19:16;;;;;;;5.53;1.95;;;;;;;19.76;56.38;100617.16;5206337;28;20431;-51
2022/06/08 12:22:06;;;;;;;3.97;1.95;;;;;;;19.69;56.48;100621.72;5211881;28;20422;-54
2022/06/08 12:24:40;;;;;;;8.23;2.78;;;;;;;19.69;56.40;100611.00;5214224;28;20601;-53